createdAt,value
2022-12-08T00:04:25.943Z,22.34
2022-12-08T00:09:37.999Z,24.63
2022-12-08T00:14:43.513Z,18.32
2022-12-08T00:19:48.218Z,22.61
2022-12-08T00:24:51.596Z,21.61
2022-12-08T00:29:54.899Z,22.40
2022-12-08T00:34:59.551Z,28.19
2022-12-08T00:40:03.242Z,25.91
2022-12-08T00:45:07.350Z,29.83
2022-12-08T00:50:12.484Z,24.85
2022-12-08T00:55:15.934Z,21.60
2022-12-08T01:00:21.859Z,25.71
2022-12-08T01:05:28.795Z,27.40
2022-12-08T01:10:36.531Z,24.84
2022-12-08T01:15:39.881Z,23.45
2022-12-08T01:20:44.523Z,21.56
2022-12-08T01:25:48.368Z,20.89
2022-12-08T01:30:54.060Z,24.75
2022-12-08T01:36:03.531Z,25.64
2022-12-08T01:41:07.087Z,24.44
2022-12-08T01:46:10.466Z,19.79
2022-12-08T01:51:15.726Z,20.66
2022-12-08T01:56:22.996Z,22.31
2022-12-08T02:01:26.646Z,26.01
2022-12-08T02:06:34.373Z,25.99
2022-12-08T02:11:37.706Z,24.04
2022-12-08T02:16:47.823Z,25.14
2022-12-08T02:21:58.086Z,24.94
2022-12-08T02:27:16.441Z,24.01
2022-12-08T02:32:30.800Z,26.62
2022-12-08T02:37:41.507Z,26.80
2022-12-08T02:42:49.971Z,28.14
2022-12-08T02:47:55.702Z,24.72
2022-12-08T02:53:01.901Z,21.90
2022-12-08T02:58:25.849Z,39.49
2022-12-08T03:03:33.858Z,22.04
2022-12-08T03:08:43.972Z,18.87
2022-12-08T03:13:52.955Z,19.65
2022-12-08T03:19:01.824Z,19.53
2022-12-08T03:24:11.544Z,14.59
2022-12-08T03:29:15.785Z,10.29
2022-12-08T03:34:20.968Z,10.09
2022-12-08T03:39:25.639Z,10.55
2022-12-08T03:44:28.952Z,11.98
2022-12-08T03:49:32.226Z,10.92
2022-12-08T03:54:39.059Z,9.78
2022-12-08T03:59:42.651Z,11.73
2022-12-08T04:04:46.023Z,11.99
2022-12-08T04:09:53.049Z,12.51
2022-12-08T04:14:56.343Z,13.62
2022-12-08T04:19:59.662Z,12.60
2022-12-08T04:25:04.578Z,11.82
2022-12-08T04:30:10.719Z,11.08
2022-12-08T04:35:14.031Z,13.24
2022-12-08T04:40:19.025Z,11.74
2022-12-08T04:45:24.377Z,19.37
2022-12-08T04:50:28.287Z,16.86
2022-12-08T04:55:32.977Z,13.08
2022-12-08T05:00:36.300Z,12.20
2022-12-08T05:05:39.985Z,12.32
2022-12-08T05:10:44.688Z,11.87
2022-12-08T05:15:48.052Z,16.93
2022-12-08T05:20:51.378Z,21.14
2022-12-08T05:25:56.102Z,22.67
2022-12-08T05:30:59.504Z,23.27
2022-12-08T05:36:02.809Z,20.07
2022-12-08T05:41:08.182Z,20.72
2022-12-08T05:46:14.793Z,22.34
2022-12-08T05:51:19.815Z,24.19
2022-12-08T05:56:27.562Z,24.29
2022-12-08T06:01:33.085Z,22.85
2022-12-08T06:06:37.037Z,25.26
2022-12-08T06:11:43.944Z,25.99
2022-12-08T06:16:49.670Z,25.57
2022-12-08T06:21:53.041Z,27.75
2022-12-08T06:26:57.759Z,28.37
2022-12-08T06:32:01.169Z,24.70
2022-12-08T06:37:04.580Z,27.26
2022-12-08T06:42:26.772Z,30.96
2022-12-08T06:47:30.121Z,27.27
2022-12-08T06:52:34.900Z,30.04
2022-12-08T06:57:41.429Z,27.87
2022-12-08T07:02:44.919Z,28.10
2022-12-08T07:07:48.428Z,27.49
2022-12-08T07:12:55.752Z,23.83
2022-12-08T07:18:00.421Z,25.30
2022-12-08T07:23:08.640Z,25.21
2022-12-08T07:28:15.544Z,26.42
2022-12-08T07:33:20.936Z,32.55
2022-12-08T07:38:24.358Z,25.30
2022-12-08T07:43:29.028Z,27.52
2022-12-08T07:48:32.356Z,24.11
2022-12-08T07:53:35.709Z,22.92
2022-12-08T07:58:40.873Z,23.25
2022-12-08T08:03:44.902Z,21.75
2022-12-08T08:08:48.795Z,23.34
2022-12-08T08:13:55.720Z,24.73
2022-12-08T08:18:59.168Z,28.42
2022-12-08T08:24:02.470Z,33.29
2022-12-08T08:29:07.222Z,24.13
2022-12-08T08:34:12.980Z,22.75
2022-12-08T08:39:16.412Z,26.30
2022-12-08T08:44:21.070Z,26.49
2022-12-08T08:49:24.921Z,26.95
2022-12-08T08:54:29.450Z,27.34
2022-12-08T08:59:39.147Z,27.17
2022-12-08T09:04:45.741Z,26.06
2022-12-08T09:09:51.304Z,26.02
2022-12-08T09:14:59.181Z,28.95
2022-12-08T09:20:03.140Z,25.40
2022-12-08T09:25:09.649Z,26.53
2022-12-08T09:30:16.778Z,28.20
2022-12-08T09:35:20.128Z,29.81
2022-12-08T09:40:26.158Z,32.80
2022-12-08T09:45:36.513Z,28.07
2022-12-08T09:50:47.774Z,28.00
2022-12-08T09:55:53.674Z,28.19
2022-12-08T10:00:58.431Z,26.65
2022-12-08T10:06:09.106Z,31.63
2022-12-08T10:11:15.430Z,31.50
2022-12-08T10:16:29.803Z,29.96
2022-12-08T10:21:40.666Z,31.38
2022-12-08T10:26:46.831Z,32.56
2022-12-08T10:31:51.562Z,30.84
2022-12-08T10:36:56.860Z,33.53
2022-12-08T10:42:07.995Z,37.41
2022-12-08T10:47:15.936Z,40.23
2022-12-08T10:52:24.794Z,38.34
2022-12-08T10:57:30.310Z,43.00
2022-12-08T11:02:35.136Z,39.74
2022-12-08T11:07:39.138Z,41.61
2022-12-08T11:12:45.208Z,44.67
2022-12-08T11:18:01.138Z,41.83
2022-12-08T11:23:21.106Z,44.96
2022-12-08T11:28:27.084Z,43.80
2022-12-08T11:33:31.731Z,42.68
2022-12-08T11:38:42.346Z,39.12
2022-12-08T11:43:50.070Z,41.61
2022-12-08T11:49:05.600Z,41.69
2022-12-08T11:54:18.232Z,41.34
2022-12-08T11:59:28.081Z,40.47
2022-12-08T12:04:36.998Z,41.17
2022-12-08T12:09:49.557Z,45.89
2022-12-08T12:15:07.991Z,50.32
2022-12-08T12:20:18.172Z,44.38
2022-12-08T12:25:23.930Z,43.89
2022-12-08T12:30:37.108Z,41.18
2022-12-08T12:35:45.391Z,66.64
2022-12-08T12:40:51.349Z,45.35
2022-12-08T12:46:16.176Z,45.25
2022-12-08T12:51:45.852Z,46.80
2022-12-08T12:56:54.301Z,50.29
2022-12-08T13:02:00.279Z,45.01
2022-12-08T13:07:06.633Z,46.62
2022-12-08T13:12:11.795Z,47.61
2022-12-08T13:17:18.985Z,45.78
2022-12-08T13:22:41.063Z,46.24
2022-12-08T13:27:55.249Z,49.62
2022-12-08T13:33:17.645Z,47.21
2022-12-08T13:38:23.779Z,46.88
2022-12-08T13:43:47.697Z,49.99
2022-12-08T13:59:53.981Z,52.02
2022-12-08T14:10:28.790Z,48.63
2022-12-08T14:15:38.559Z,48.48
2022-12-08T14:21:18.806Z,50.85
2022-12-08T14:26:08.210Z,49.78
2022-12-08T14:31:14.604Z,50.81
2022-12-08T14:36:21.021Z,54.30
2022-12-08T14:41:28.132Z,53.68
2022-12-08T14:46:32.941Z,50.39
2022-12-08T14:51:36.971Z,55.80
2022-12-08T14:56:42.391Z,58.00
2022-12-08T15:01:50.838Z,56.02
2022-12-08T15:06:59.560Z,47.82
2022-12-08T15:12:03.892Z,51.50
2022-12-08T15:17:24.257Z,51.37
2022-12-08T15:22:30.788Z,61.77
2022-12-08T15:27:49.567Z,51.63
2022-12-08T15:32:54.211Z,55.11
2022-12-08T15:37:59.002Z,55.68
2022-12-08T15:43:02.349Z,54.34
2022-12-08T15:48:05.998Z,53.34
2022-12-08T15:53:13.559Z,53.90
2022-12-08T16:09:18.283Z,53.23
2022-12-08T16:15:23.425Z,55.12
2022-12-08T16:19:47.214Z,56.00
2022-12-08T16:24:52.072Z,55.92
2022-12-08T16:29:59.245Z,53.09
2022-12-08T16:35:06.667Z,57.58
2022-12-08T16:40:12.582Z,59.47
2022-12-08T16:45:17.797Z,54.46
2022-12-08T16:50:23.172Z,52.03
2022-12-08T16:55:30.475Z,59.40
2022-12-08T17:00:36.881Z,52.08
2022-12-08T17:05:41.219Z,55.97
2022-12-08T17:11:05.905Z,50.65
2022-12-08T17:16:12.919Z,50.63
2022-12-08T17:21:19.171Z,46.25
2022-12-08T17:26:26.080Z,46.68
2022-12-08T17:31:31.304Z,41.59
2022-12-08T17:36:37.440Z,44.89
2022-12-08T17:41:42.641Z,40.81
2022-12-08T17:46:52.218Z,45.94
2022-12-08T17:51:57.137Z,37.72
2022-12-08T17:57:01.923Z,35.70
2022-12-08T18:02:05.429Z,34.68
2022-12-08T18:07:10.958Z,33.38
2022-12-08T18:12:23.567Z,34.60
2022-12-08T18:17:27.319Z,39.01
2022-12-08T18:22:30.780Z,42.34
2022-12-08T18:27:43.016Z,35.98
2022-12-08T18:32:46.903Z,34.77
2022-12-08T18:37:54.720Z,36.01
2022-12-08T18:43:01.910Z,47.21
2022-12-08T18:48:05.681Z,34.02
2022-12-08T18:53:09.368Z,34.09
2022-12-08T18:58:14.516Z,34.68
2022-12-08T19:03:17.831Z,35.59
2022-12-08T19:08:23.393Z,38.47
2022-12-08T19:13:30.559Z,41.56
2022-12-08T19:18:33.977Z,41.48
2022-12-08T19:23:42.510Z,45.17
2022-12-08T19:28:49.552Z,44.41
2022-12-08T19:33:55.883Z,42.35
2022-12-08T19:39:18.683Z,43.25
2022-12-08T19:44:42.511Z,43.25
2022-12-08T19:49:48.146Z,42.61
2022-12-08T19:54:54.055Z,43.59
2022-12-08T20:00:01.771Z,45.02
2022-12-08T20:05:05.756Z,44.28
2022-12-08T20:10:10.943Z,41.74
2022-12-08T20:15:18.440Z,42.15
2022-12-08T20:20:21.845Z,41.14
2022-12-08T20:25:30.103Z,41.70
2022-12-08T20:30:35.018Z,42.97
2022-12-08T20:35:40.908Z,40.16
2022-12-08T20:40:47.506Z,38.95
2022-12-08T20:45:52.272Z,38.89
2022-12-08T20:50:55.914Z,43.38
2022-12-08T20:55:59.445Z,43.25
2022-12-08T21:01:08.944Z,45.29
2022-12-08T21:06:14.927Z,46.25
2022-12-08T21:11:18.692Z,44.40
2022-12-08T21:16:23.536Z,44.65
2022-12-08T21:21:29.415Z,44.46
2022-12-08T21:26:32.854Z,45.83
2022-12-08T21:31:40.683Z,49.50
2022-12-08T21:36:44.325Z,74.84
2022-12-08T21:42:05.587Z,58.15
2022-12-08T21:47:13.837Z,50.65
2022-12-08T21:52:17.286Z,50.83
2022-12-08T21:57:20.684Z,51.59
2022-12-08T22:02:25.739Z,48.08
2022-12-08T22:07:32.003Z,49.96
2022-12-08T22:12:35.775Z,55.26
2022-12-08T22:17:41.852Z,47.58
2022-12-08T22:22:50.072Z,46.61
2022-12-08T22:27:53.939Z,45.49
2022-12-08T22:32:58.887Z,45.96
2022-12-08T22:38:02.273Z,47.98
2022-12-08T22:43:05.760Z,46.19
2022-12-08T22:48:10.972Z,48.16
2022-12-08T22:53:17.408Z,49.43
2022-12-08T22:58:23.175Z,47.33
2022-12-08T23:03:28.044Z,48.88
2022-12-08T23:08:31.664Z,49.99
2022-12-08T23:13:36.109Z,50.38
2022-12-08T23:18:43.584Z,48.54
2022-12-08T23:23:49.546Z,47.23
2022-12-08T23:28:56.386Z,48.61
2022-12-08T23:34:03.034Z,46.41
2022-12-08T23:39:07.031Z,49.09
2022-12-08T23:44:12.342Z,47.99
2022-12-08T23:49:17.291Z,46.44
2022-12-08T23:54:21.016Z,47.17
2022-12-08T23:59:24.424Z,46.26
